createdAt,value
2022-12-31T00:01:10.177Z,92746.38
2022-12-31T00:03:37.102Z,92739.50
2022-12-31T00:06:26.174Z,92742.69
2022-12-31T00:08:55.498Z,92739.53
2022-12-31T00:11:23.437Z,92730.84
2022-12-31T00:13:50.519Z,92747.41
2022-12-31T00:16:22.701Z,92747.38
2022-12-31T00:18:53.492Z,92747.91
2022-12-31T00:21:21.579Z,92770.78
2022-12-31T00:23:48.633Z,92748.97
2022-12-31T00:26:18.074Z,92743.41
2022-12-31T00:28:45.499Z,92747.91
2022-12-31T00:31:18.860Z,92747.91
2022-12-31T00:33:46.150Z,92737.91
2022-12-31T00:36:15.354Z,92733.97
2022-12-31T00:38:44.264Z,92726.59
2022-12-31T00:41:11.552Z,92741.59
2022-12-31T00:43:38.213Z,92729.75
2022-12-31T00:46:06.125Z,92699.00
2022-12-31T00:48:33.480Z,92712.13
2022-12-31T00:51:00.908Z,92722.13
2022-12-31T00:53:28.546Z,92721.63
2022-12-31T00:56:06.224Z,92759.72
2022-12-31T00:58:33.487Z,92714.25
2022-12-31T01:01:08.993Z,92701.09
2022-12-31T01:03:35.642Z,92720.31
2022-12-31T01:06:02.251Z,92731.56
2022-12-31T01:08:28.657Z,92718.19
2022-12-31T01:11:13.437Z,92708.44
2022-12-31T01:13:39.911Z,92735.25
2022-12-31T01:16:11.308Z,92735.28
2022-12-31T01:18:38.392Z,92727.91
2022-12-31T01:21:07.504Z,92738.91
2022-12-31T01:23:34.070Z,92744.44
2022-12-31T01:26:02.094Z,92758.41
2022-12-31T01:28:29.796Z,92772.34
2022-12-31T01:30:57.302Z,92780.72
2022-12-31T01:33:23.965Z,92776.25
2022-12-31T01:35:51.859Z,92783.63
2022-12-31T01:38:18.268Z,92793.06
2022-12-31T01:40:44.758Z,92775.72
2022-12-31T01:43:19.727Z,92784.13
2022-12-31T01:45:49.364Z,92803.59
2022-12-31T01:48:22.201Z,92789.09
2022-12-31T01:50:49.757Z,92819.91
2022-12-31T01:53:18.130Z,92828.06
2022-12-31T01:55:57.925Z,92819.38
2022-12-31T01:58:28.930Z,92821.50
2022-12-31T02:00:58.530Z,92811.19
2022-12-31T02:03:27.239Z,92830.94
2022-12-31T02:06:03.307Z,92815.16
2022-12-31T02:08:30.091Z,92852.00
2022-12-31T02:10:56.613Z,92822.00
2022-12-31T02:13:23.228Z,92833.06
2022-12-31T02:16:10.301Z,92852.81
2022-12-31T02:18:57.267Z,92847.25
2022-12-31T02:21:58.017Z,92835.16
2022-12-31T02:24:57.402Z,92844.09
2022-12-31T02:27:39.029Z,92841.75
2022-12-31T02:30:16.836Z,92862.78
2022-12-31T02:33:03.024Z,92881.22
2022-12-31T02:35:50.773Z,92849.88
2022-12-31T02:38:44.678Z,92845.94
2022-12-31T02:41:35.705Z,92865.13
2022-12-31T02:44:20.208Z,92852.81
2022-12-31T02:46:57.055Z,92839.38
2022-12-31T02:49:47.193Z,92840.16
2022-12-31T02:52:51.224Z,92882.03
2022-12-31T02:55:35.644Z,92856.22
2022-12-31T03:01:55.842Z,92837.78
2022-12-31T03:04:32.761Z,92839.88
2022-12-31T03:07:07.861Z,92838.81
2022-12-31T03:09:35.701Z,92864.09
2022-12-31T03:12:22.983Z,92867.25
2022-12-31T03:14:49.746Z,92873.03
2022-12-31T03:17:16.224Z,92862.50
2022-12-31T03:20:01.332Z,92873.84
2022-12-31T03:22:28.196Z,92853.56
2022-12-31T03:25:28.325Z,92858.56
2022-12-31T03:27:55.746Z,92873.06
2022-12-31T03:30:23.649Z,92866.19
2022-12-31T03:32:50.673Z,92881.19
2022-12-31T03:35:20.253Z,92877.25
2022-12-31T03:37:48.209Z,92890.66
2022-12-31T03:40:15.728Z,92879.59
2022-12-31T03:42:42.414Z,92849.31
2022-12-31T03:45:10.137Z,92866.69
2022-12-31T03:47:36.648Z,92865.63
2022-12-31T03:50:05.327Z,92860.13
2022-12-31T03:52:31.761Z,92864.06
2022-12-31T03:54:58.346Z,92865.38
2022-12-31T03:57:25.229Z,92853.28
2022-12-31T03:59:51.684Z,92861.44
2022-12-31T04:02:23.290Z,92872.50
2022-12-31T04:04:54.672Z,92864.06
2022-12-31T04:07:21.135Z,92871.44
2022-12-31T04:09:47.574Z,92880.91
2022-12-31T04:12:14.013Z,92880.41
2022-12-31T04:14:40.708Z,92871.97
2022-12-31T04:17:07.342Z,92875.66
2022-12-31T04:19:33.785Z,92884.09
2022-12-31T04:22:00.203Z,92871.16
2022-12-31T04:24:26.676Z,92881.19
2022-12-31T04:26:53.176Z,92872.22
2022-12-31T04:29:19.699Z,92871.94
2022-12-31T04:31:46.166Z,92876.94
2022-12-31T04:34:12.661Z,92874.56
2022-12-31T04:36:39.125Z,92869.31
2022-12-31T04:39:05.599Z,92895.91
2022-12-31T04:41:32.057Z,92889.31
2022-12-31T04:43:59.353Z,92890.91
2022-12-31T04:46:31.510Z,92892.22
2022-12-31T04:48:58.669Z,92884.31
2022-12-31T04:51:27.315Z,92876.94
2022-12-31T04:53:54.621Z,92884.84
2022-12-31T04:56:21.679Z,92881.41
2022-12-31T04:58:48.174Z,92888.78
2022-12-31T05:01:15.455Z,92897.50
2022-12-31T05:03:42.130Z,92906.16
2022-12-31T05:06:13.523Z,92896.16
2022-12-31T05:08:40.144Z,92908.28
2022-12-31T05:11:06.601Z,92907.22
2022-12-31T05:13:33.863Z,92914.59
2022-12-31T05:16:01.806Z,92919.88
2022-12-31T05:18:28.872Z,92922.50
2022-12-31T05:20:55.420Z,92916.97
2022-12-31T05:23:23.775Z,92920.38
2022-12-31T05:25:50.879Z,92888.78
2022-12-31T05:28:17.788Z,92902.47
2022-12-31T05:30:47.810Z,92914.09
2022-12-31T05:33:14.274Z,92903.00
2022-12-31T05:35:40.769Z,92901.44
2022-12-31T05:38:07.364Z,92893.00
2022-12-31T05:40:33.824Z,92886.41
2022-12-31T05:43:00.245Z,92891.16
2022-12-31T05:45:30.712Z,92893.78
2022-12-31T05:47:58.057Z,92910.63
2022-12-31T05:50:24.873Z,92911.69
2022-12-31T05:52:55.450Z,92926.69
2022-12-31T05:55:22.004Z,92922.25
2022-12-31T05:57:48.493Z,92913.03
2022-12-31T06:00:15.400Z,92926.19
2022-12-31T06:02:42.032Z,92938.81
2022-12-31T06:05:09.169Z,92956.22
2022-12-31T06:07:35.633Z,92943.03
2022-12-31T06:10:04.753Z,92965.69
2022-12-31T06:12:31.327Z,92962.00
2022-12-31T06:14:57.762Z,92969.63
2022-12-31T06:17:24.567Z,92959.34
2022-12-31T06:19:50.995Z,92973.03
2022-12-31T06:22:17.510Z,92966.19
2022-12-31T06:24:44.003Z,92955.66
2022-12-31T06:27:10.464Z,92953.28
2022-12-31T06:29:36.999Z,92933.78
2022-12-31T06:32:03.849Z,92946.16
2022-12-31T06:34:30.544Z,92937.19
2022-12-31T06:36:57.449Z,92938.25
2022-12-31T06:39:23.872Z,92948.56
2022-12-31T06:41:50.316Z,92941.94
2022-12-31T06:44:16.744Z,92950.66
2022-12-31T06:46:43.254Z,92946.69
2022-12-31T06:49:09.814Z,92949.31
2022-12-31T06:51:36.263Z,92943.81
2022-12-31T06:54:02.734Z,92941.16
2022-12-31T06:56:34.509Z,92937.22
2022-12-31T06:59:02.138Z,92956.72
2022-12-31T07:01:37.641Z,92953.53
2022-12-31T07:04:25.853Z,92953.53
2022-12-31T07:06:54.601Z,92944.34
2022-12-31T07:09:40.372Z,92981.22
2022-12-31T07:12:20.505Z,92980.97
2022-12-31T07:14:58.448Z,92983.06
2022-12-31T07:17:57.502Z,92991.50
2022-12-31T07:20:24.349Z,92979.38
2022-12-31T07:22:51.003Z,92968.81
2022-12-31T07:25:18.973Z,92981.50
2022-12-31T07:28:03.610Z,93012.84
2022-12-31T07:31:00.224Z,92992.31
2022-12-31T07:33:46.337Z,92988.06
2022-12-31T07:36:36.562Z,93007.31
2022-12-31T07:39:11.154Z,92999.91
2022-12-31T07:41:50.495Z,92997.78
2022-12-31T07:44:39.052Z,93003.59
2022-12-31T07:47:24.186Z,92992.50
2022-12-31T07:49:51.175Z,92999.34
2022-12-31T07:52:18.249Z,93006.19
2022-12-31T07:54:44.817Z,93008.84
2022-12-31T07:57:16.690Z,93004.06
2022-12-31T07:59:55.700Z,93010.13
2022-12-31T08:02:33.093Z,92986.06
2022-12-31T08:05:15.210Z,92995.56
2022-12-31T08:07:55.050Z,92993.44
2022-12-31T08:10:36.004Z,93001.09
2022-12-31T08:13:07.654Z,93003.69
2022-12-31T08:15:34.597Z,93018.72
2022-12-31T08:18:01.237Z,93005.75
2022-12-31T08:20:31.192Z,93015.53
2022-12-31T08:23:08.815Z,93011.81
2022-12-31T08:25:59.961Z,92995.97
2022-12-31T08:28:35.564Z,93006.75
2022-12-31T08:31:09.037Z,93013.88
2022-12-31T08:34:05.359Z,93021.25
2022-12-31T08:36:52.134Z,93024.91
2022-12-31T08:39:45.324Z,93009.59
2022-12-31T08:42:25.433Z,93022.25
2022-12-31T08:45:10.780Z,93044.16
2022-12-31T08:48:00.356Z,93028.38
2022-12-31T08:50:27.959Z,93031.75
2022-12-31T08:52:54.834Z,93018.00
2022-12-31T08:55:21.991Z,93026.72
2022-12-31T08:58:08.268Z,93029.38
2022-12-31T09:00:36.399Z,93023.28
2022-12-31T09:03:11.671Z,93030.44
2022-12-31T09:05:54.930Z,93013.78
2022-12-31T09:08:45.974Z,93021.38
2022-12-31T09:11:22.798Z,93024.81
2022-12-31T09:14:27.165Z,93026.59
2022-12-31T09:17:12.410Z,93035.81
2022-12-31T09:19:38.885Z,93033.38
2022-12-31T09:22:05.500Z,93034.19
2022-12-31T09:24:32.288Z,93017.78
2022-12-31T09:27:30.152Z,93019.09
2022-12-31T09:30:10.688Z,93016.91
2022-12-31T09:33:01.394Z,93034.81
2022-12-31T09:35:41.617Z,93033.56
2022-12-31T09:38:23.827Z,93033.56
2022-12-31T09:41:14.433Z,93025.84
2022-12-31T09:44:12.940Z,93040.59
2022-12-31T09:47:11.119Z,93020.25
2022-12-31T09:49:43.339Z,93042.41
2022-12-31T09:52:30.483Z,93043.66
2022-12-31T09:55:12.240Z,93044.69
2022-12-31T09:58:02.147Z,93023.03
2022-12-31T10:00:39.028Z,93019.31
2022-12-31T10:03:36.401Z,93010.84
2022-12-31T10:06:24.357Z,93008.47
2022-12-31T10:09:29.940Z,93024.47
2022-12-31T10:12:06.370Z,93022.00
2022-12-31T10:15:01.310Z,93033.56
2022-12-31T10:17:52.763Z,93055.72
2022-12-31T10:20:56.922Z,93040.91
2022-12-31T10:23:43.864Z,93040.75
2022-12-31T10:26:52.919Z,93043.72
2022-12-31T10:29:47.044Z,93047.97
2022-12-31T10:32:16.209Z,93033.31
2022-12-31T10:35:15.102Z,93023.84
2022-12-31T10:37:53.610Z,93031.66
2022-12-31T10:40:29.590Z,93029.91
2022-12-31T10:43:33.594Z,93028.78
2022-12-31T10:46:32.376Z,93016.50
2022-12-31T10:49:22.083Z,93010.00
2022-12-31T10:52:24.914Z,93007.63
2022-12-31T10:55:24.820Z,93020.72
2022-12-31T10:58:06.567Z,93007.59
2022-12-31T11:00:56.592Z,93009.91
2022-12-31T11:03:41.788Z,93017.00
2022-12-31T11:06:29.674Z,93014.44
2022-12-31T11:09:23.265Z,93014.50
2022-12-31T11:12:15.963Z,93020.09
2022-12-31T11:14:48.039Z,92996.81
2022-12-31T11:17:40.710Z,92998.59
2022-12-31T11:20:23.685Z,92993.06
2022-12-31T11:23:10.327Z,92996.63
2022-12-31T11:25:59.616Z,92999.78
2022-12-31T11:28:52.475Z,92982.81
2022-12-31T11:31:43.237Z,92984.75
2022-12-31T11:34:25.001Z,92983.00
2022-12-31T11:37:05.635Z,92982.75
2022-12-31T11:42:57.339Z,92972.34
2022-12-31T11:45:56.216Z,92977.28
2022-12-31T11:48:32.552Z,92967.06
2022-12-31T11:51:21.413Z,92980.22
2022-12-31T11:54:25.095Z,92954.69
2022-12-31T11:57:08.219Z,92954.09
2022-12-31T11:59:34.717Z,92960.88
2022-12-31T12:02:12.409Z,92962.34
2022-12-31T12:04:38.864Z,92957.50
2022-12-31T12:07:13.473Z,92951.13
2022-12-31T12:09:41.310Z,92953.69
2022-12-31T12:12:07.908Z,92939.84
2022-12-31T12:14:37.811Z,92948.47
2022-12-31T12:17:09.189Z,92946.91
2022-12-31T12:19:41.604Z,92946.53
2022-12-31T12:22:12.548Z,92946.41
2022-12-31T12:24:39.271Z,92936.38
2022-12-31T12:27:21.439Z,92933.13
2022-12-31T12:29:48.690Z,92938.66
2022-12-31T12:32:18.049Z,92931.47
2022-12-31T12:34:49.570Z,92932.16
2022-12-31T12:37:32.227Z,92925.72
2022-12-31T12:40:05.208Z,92950.63
2022-12-31T12:42:32.260Z,92916.41
2022-12-31T12:45:14.582Z,92916.31
2022-12-31T12:47:43.014Z,92911.97
2022-12-31T12:50:19.002Z,92916.38
2022-12-31T12:53:08.596Z,92916.19
2022-12-31T12:55:46.771Z,92914.09
2022-12-31T12:58:18.822Z,92908.78
2022-12-31T13:01:18.283Z,92898.41
2022-12-31T13:04:32.340Z,92895.06
2022-12-31T13:07:14.211Z,92899.09
2022-12-31T13:10:08.314Z,92907.84
2022-12-31T13:13:22.795Z,92894.88
2022-12-31T13:15:47.395Z,92892.09
2022-12-31T13:18:32.742Z,92896.78
2022-12-31T13:21:39.587Z,92905.78
2022-12-31T13:24:36.223Z,92909.94
2022-12-31T13:27:26.837Z,92899.56
2022-12-31T13:29:56.416Z,92902.91
2022-12-31T13:32:37.841Z,92898.31
2022-12-31T13:35:21.525Z,92895.66
2022-12-31T13:37:48.496Z,92894.38
2022-12-31T13:40:45.157Z,92889.19
2022-12-31T13:43:36.627Z,92896.09
2022-12-31T13:46:13.956Z,92901.78
2022-12-31T13:48:48.589Z,92902.69
2022-12-31T13:51:47.108Z,92903.19
2022-12-31T13:54:21.447Z,92908.09
2022-12-31T13:56:50.592Z,92909.41
2022-12-31T13:59:31.682Z,92904.56
2022-12-31T14:02:08.694Z,92906.91
2022-12-31T14:04:45.009Z,92913.56
2022-12-31T14:07:19.032Z,92912.75
2022-12-31T14:09:46.685Z,92911.03
2022-12-31T14:12:31.343Z,92909.22
2022-12-31T14:15:24.321Z,92915.28
2022-12-31T14:17:57.243Z,92921.81
2022-12-31T14:20:53.537Z,92922.75
2022-12-31T14:23:34.174Z,92923.69
2022-12-31T14:26:22.629Z,92926.47
2022-12-31T14:29:12.075Z,92916.69
2022-12-31T14:31:53.765Z,92925.38
2022-12-31T14:34:26.311Z,92935.63
2022-12-31T14:36:58.955Z,92922.41
2022-12-31T14:39:43.899Z,92931.69
2022-12-31T14:42:38.957Z,92934.31
2022-12-31T14:45:14.374Z,92938.31
2022-12-31T14:47:59.908Z,92935.06
2022-12-31T14:50:29.532Z,92938.78
2022-12-31T14:53:08.499Z,92929.75
2022-12-31T14:55:37.677Z,92939.19
2022-12-31T14:58:29.288Z,92943.47
2022-12-31T15:01:02.095Z,92943.56
2022-12-31T15:03:31.509Z,92942.03
2022-12-31T15:06:23.103Z,92947.47
2022-12-31T15:09:08.788Z,92944.34
2022-12-31T15:11:41.554Z,92941.81
2022-12-31T15:14:47.309Z,92940.84
2022-12-31T15:17:48.883Z,92945.09
2022-12-31T15:20:38.664Z,92944.38
2022-12-31T15:23:33.363Z,92947.31
2022-12-31T15:26:01.754Z,92940.28
2022-12-31T15:28:34.409Z,92941.16
2022-12-31T15:31:20.867Z,92950.94
2022-12-31T15:34:02.602Z,92947.28
2022-12-31T15:36:32.345Z,92949.72
2022-12-31T15:39:11.166Z,92952.94
2022-12-31T15:41:42.898Z,92952.97
2022-12-31T15:44:25.992Z,92946.13
2022-12-31T15:47:24.397Z,92948.03
2022-12-31T15:49:53.696Z,92961.00
2022-12-31T15:52:26.275Z,92955.44
2022-12-31T15:54:56.273Z,92957.53
2022-12-31T15:57:41.497Z,92970.19
2022-12-31T16:00:17.064Z,92963.09
2022-12-31T16:02:45.264Z,92962.53
2022-12-31T16:05:24.408Z,92967.03
2022-12-31T16:07:59.405Z,92966.22
2022-12-31T16:10:32.123Z,92962.53
2022-12-31T16:12:59.768Z,92969.38
2022-12-31T16:15:31.528Z,92967.28
2022-12-31T16:18:04.628Z,92979.91
2022-12-31T16:20:33.940Z,92979.38
2022-12-31T16:23:03.104Z,92985.94
2022-12-31T16:25:32.870Z,92978.34
2022-12-31T16:28:02.490Z,92983.03
2022-12-31T16:30:31.129Z,92992.75
2022-12-31T16:33:03.706Z,92988.81
2022-12-31T16:35:36.371Z,92996.72
2022-12-31T16:38:19.549Z,92984.56
2022-12-31T16:41:01.180Z,92991.16
2022-12-31T16:43:29.009Z,92992.22
2022-12-31T16:46:10.129Z,92987.19
2022-12-31T16:48:37.586Z,92996.91
2022-12-31T16:51:05.176Z,92995.03
2022-12-31T16:53:36.421Z,92997.16
2022-12-31T16:56:09.004Z,92992.69
2022-12-31T16:58:40.767Z,92990.59
2022-12-31T17:01:27.380Z,92990.81
2022-12-31T17:04:00.140Z,92994.53
2022-12-31T17:06:28.418Z,92989.50
2022-12-31T17:09:00.884Z,93003.38
2022-12-31T17:11:34.325Z,93002.34
2022-12-31T17:14:07.493Z,93000.53
2022-12-31T17:17:01.666Z,93003.97
2022-12-31T17:19:35.162Z,93008.66
2022-12-31T17:22:04.277Z,93000.16
2022-12-31T17:24:31.549Z,93002.75
2022-12-31T17:27:05.304Z,93003.22
2022-12-31T17:29:32.359Z,92997.13
2022-12-31T17:32:08.001Z,93002.63
2022-12-31T17:34:47.277Z,93012.63
2022-12-31T17:37:18.694Z,93005.22
2022-12-31T17:39:53.517Z,93014.84
2022-12-31T17:42:36.337Z,93007.47
2022-12-31T17:45:08.103Z,93016.13
2022-12-31T17:47:40.392Z,93011.41
2022-12-31T17:50:19.086Z,93014.56
2022-12-31T17:52:46.305Z,93017.94
2022-12-31T17:55:12.848Z,93008.69
2022-12-31T17:57:47.346Z,93005.25
2022-12-31T18:00:23.244Z,93018.38
2022-12-31T18:02:49.857Z,93017.06
2022-12-31T18:05:22.302Z,93017.59
2022-12-31T18:07:48.843Z,93015.00
2022-12-31T18:10:17.083Z,93017.88
2022-12-31T18:12:44.836Z,93016.56
2022-12-31T18:15:24.765Z,93019.94
2022-12-31T18:17:51.576Z,93017.59
2022-12-31T18:20:18.603Z,93014.44
2022-12-31T18:22:45.712Z,93014.94
2022-12-31T18:25:24.336Z,93017.59
2022-12-31T18:27:52.456Z,93009.09
2022-12-31T18:30:18.998Z,93020.09
2022-12-31T18:32:46.534Z,93023.53
2022-12-31T18:35:58.106Z,93022.94
2022-12-31T18:38:11.737Z,93031.88
2022-12-31T18:40:42.621Z,93030.59
2022-12-31T18:43:15.968Z,93032.97
2022-12-31T18:45:42.682Z,93032.16
2022-12-31T18:48:09.347Z,93028.19
2022-12-31T18:50:36.148Z,93025.84
2022-12-31T18:53:02.733Z,93023.75
2022-12-31T18:55:45.843Z,93027.38
2022-12-31T18:58:12.389Z,93029.41
2022-12-31T19:00:39.435Z,93030.41
2022-12-31T19:03:06.093Z,93027.75
2022-12-31T19:05:34.634Z,93033.28
2022-12-31T19:08:01.413Z,93036.09
2022-12-31T19:10:28.246Z,93038.13
2022-12-31T19:12:54.920Z,93039.63
2022-12-31T19:15:26.529Z,93040.41
2022-12-31T19:17:53.157Z,93045.91
2022-12-31T19:20:19.701Z,93040.84
2022-12-31T19:22:46.336Z,93042.00
2022-12-31T19:25:27.737Z,93039.84
2022-12-31T19:27:54.679Z,93050.25
2022-12-31T19:30:27.057Z,93046.56
2022-12-31T19:32:53.870Z,93045.75
2022-12-31T19:35:21.368Z,93043.19
2022-12-31T19:37:49.824Z,93042.06
2022-12-31T19:40:19.444Z,93044.69
2022-12-31T19:42:46.181Z,93040.50
2022-12-31T19:45:15.094Z,93035.50
2022-12-31T19:47:42.144Z,93033.94
2022-12-31T19:50:12.744Z,93024.72
2022-12-31T19:52:39.486Z,93022.03
2022-12-31T19:55:06.347Z,93022.81
2022-12-31T19:57:32.931Z,93019.44
2022-12-31T19:59:59.410Z,93004.00
2022-12-31T20:02:26.138Z,93007.47
2022-12-31T20:04:52.704Z,93009.88
2022-12-31T20:07:25.276Z,93006.63
2022-12-31T20:09:53.558Z,93011.53
2022-12-31T20:12:20.040Z,93001.69
2022-12-31T20:14:46.536Z,93013.88
2022-12-31T20:17:13.161Z,93017.19
2022-12-31T20:19:39.693Z,93001.47
2022-12-31T20:22:06.614Z,93014.91
2022-12-31T20:24:33.512Z,93017.75
2022-12-31T20:27:00.106Z,93015.88
2022-12-31T20:29:30.156Z,93020.28
2022-12-31T20:31:57.216Z,93017.63
2022-12-31T20:34:24.065Z,93017.56
2022-12-31T20:36:50.484Z,93022.72
2022-12-31T20:39:16.941Z,93023.16
2022-12-31T20:41:43.509Z,93025.63
2022-12-31T20:44:10.132Z,93027.19
2022-12-31T20:46:37.023Z,93029.78
2022-12-31T20:49:05.176Z,93042.53
2022-12-31T20:51:34.007Z,93035.94
2022-12-31T20:54:04.160Z,93035.34
2022-12-31T20:56:32.754Z,93041.56
2022-12-31T20:59:00.638Z,93037.25
2022-12-31T21:01:41.704Z,93037.63
2022-12-31T21:04:14.131Z,93033.06
2022-12-31T21:06:40.761Z,93040.59
2022-12-31T21:09:08.425Z,93046.03
2022-12-31T21:11:53.649Z,93044.41
2022-12-31T21:14:20.393Z,93043.84
2022-12-31T21:16:47.108Z,93052.50
2022-12-31T21:19:13.675Z,93043.81
2022-12-31T21:21:40.152Z,93053.47
2022-12-31T21:24:06.845Z,93046.13
2022-12-31T21:26:34.335Z,93058.19
2022-12-31T21:29:00.796Z,93058.22
2022-12-31T21:31:27.571Z,93054.38
2022-12-31T21:33:54.183Z,93062.97
2022-12-31T21:36:20.676Z,93066.09
2022-12-31T21:38:47.225Z,93078.09
2022-12-31T21:41:35.063Z,93077.06
2022-12-31T21:44:01.998Z,93087.19
2022-12-31T21:46:28.919Z,93091.03
2022-12-31T21:49:00.019Z,93098.81
2022-12-31T21:51:27.550Z,93101.88
2022-12-31T21:53:54.018Z,93099.72
2022-12-31T21:56:21.516Z,93113.16
2022-12-31T21:59:12.339Z,93115.16
2022-12-31T22:01:57.340Z,93110.88
2022-12-31T22:05:00.346Z,93113.28
2022-12-31T22:07:10.291Z,93110.78
2022-12-31T22:09:36.706Z,93114.34
2022-12-31T22:12:03.296Z,93118.47
2022-12-31T22:14:29.767Z,93113.72
2022-12-31T22:16:56.210Z,93115.63
2022-12-31T22:19:22.761Z,93122.94
2022-12-31T22:21:49.221Z,93119.19
2022-12-31T22:24:15.700Z,93122.16
2022-12-31T22:26:46.533Z,93116.13
2022-12-31T22:29:13.351Z,93123.88
2022-12-31T22:31:39.868Z,93126.50
2022-12-31T22:34:06.371Z,93124.38
2022-12-31T22:36:32.916Z,93134.81
2022-12-31T22:38:59.691Z,93126.81
2022-12-31T22:41:27.215Z,93144.56
2022-12-31T22:44:02.588Z,93137.09
2022-12-31T22:46:30.602Z,93139.53
2022-12-31T22:48:58.917Z,93147.44
2022-12-31T22:51:29.182Z,93154.28
2022-12-31T22:54:12.428Z,93154.66
2022-12-31T22:56:38.944Z,93159.84
2022-12-31T22:59:05.634Z,93161.00
2022-12-31T23:01:32.146Z,93162.16
2022-12-31T23:03:58.756Z,93152.88
2022-12-31T23:06:25.309Z,93165.81
2022-12-31T23:09:10.908Z,93158.03
2022-12-31T23:11:39.137Z,93153.69
2022-12-31T23:14:26.184Z,93161.66
2022-12-31T23:17:31.365Z,93163.53
2022-12-31T23:20:15.977Z,93163.16
2022-12-31T23:23:00.890Z,93164.63
2022-12-31T23:25:27.337Z,93170.09
2022-12-31T23:27:53.810Z,93161.84
2022-12-31T23:30:20.215Z,93156.94
2022-12-31T23:32:46.658Z,93165.66
2022-12-31T23:35:13.888Z,93155.91
2022-12-31T23:37:40.333Z,93155.13
2022-12-31T23:40:07.492Z,93156.91
2022-12-31T23:42:33.978Z,93165.72
2022-12-31T23:45:00.404Z,93162.41
2022-12-31T23:47:26.860Z,93158.75
2022-12-31T23:49:53.267Z,93162.16
2022-12-31T23:52:20.236Z,93163.69
2022-12-31T23:54:46.727Z,93161.94
2022-12-31T23:57:13.214Z,93161.16
2022-12-31T23:59:39.607Z,93158.03
